createdAt,value
2022-08-28T00:01:33.751Z,79.63
2022-08-28T00:06:54.563Z,79.74
2022-08-28T00:09:20.943Z,80.36
2022-08-28T00:11:48.311Z,80.20
2022-08-28T00:14:14.849Z,80.05
2022-08-28T00:16:42.045Z,79.98
2022-08-28T00:19:09.413Z,80.34
2022-08-28T00:21:37.076Z,79.99
2022-08-28T00:24:03.764Z,79.36
2022-08-28T00:26:48.482Z,79.73
2022-08-28T00:29:14.864Z,79.81
2022-08-28T00:31:41.462Z,79.25
2022-08-28T00:34:09.012Z,79.15
2022-08-28T00:36:37.398Z,79.06
2022-08-28T00:39:05.896Z,78.45
2022-08-28T00:41:35.560Z,78.57
2022-08-28T00:44:14.077Z,78.81
2022-08-28T00:46:43.346Z,78.26
2022-08-28T00:49:11.104Z,78.20
2022-08-28T00:51:56.503Z,78.09
2022-08-28T00:54:23.700Z,77.54
2022-08-28T00:56:51.963Z,77.37
2022-08-28T00:59:21.015Z,78.05
2022-08-28T01:01:48.788Z,78.47
2022-08-28T01:04:20.868Z,78.79
2022-08-28T01:06:53.419Z,78.57
2022-08-28T01:09:22.895Z,78.67
2022-08-28T01:11:53.041Z,78.96
2022-08-28T01:14:23.135Z,79.00
2022-08-28T01:16:55.388Z,78.46
2022-08-28T01:19:42.995Z,78.49
2022-08-28T01:22:19.224Z,78.56
2022-08-28T01:24:47.177Z,79.06
2022-08-28T01:27:13.973Z,79.44
2022-08-28T01:29:40.420Z,79.47
2022-08-28T01:32:11.206Z,79.69
2022-08-28T01:34:37.605Z,79.99
2022-08-28T01:37:04.222Z,79.61
2022-08-28T01:39:30.672Z,79.02
2022-08-28T01:41:59.464Z,79.08
2022-08-28T01:44:27.970Z,79.20
2022-08-28T01:46:58.169Z,79.48
2022-08-28T01:49:29.150Z,79.55
2022-08-28T01:51:56.918Z,79.97
2022-08-28T01:54:23.468Z,79.21
2022-08-28T01:56:49.900Z,78.75
2022-08-28T01:59:16.754Z,79.37
2022-08-28T02:01:44.228Z,79.26
2022-08-28T02:04:11.248Z,79.12
2022-08-28T02:06:37.917Z,79.55
2022-08-28T02:09:06.466Z,79.61
2022-08-28T02:11:42.560Z,79.40
2022-08-28T02:14:10.344Z,79.63
2022-08-28T02:16:36.803Z,79.45
2022-08-28T02:19:03.795Z,78.81
2022-08-28T02:21:30.227Z,78.63
2022-08-28T02:23:56.607Z,78.64
2022-08-28T02:26:23.423Z,79.40
2022-08-28T02:28:50.159Z,79.05
2022-08-28T02:31:16.780Z,79.23
2022-08-28T02:33:44.586Z,79.33
2022-08-28T02:36:13.694Z,79.40
2022-08-28T02:38:40.250Z,79.50
2022-08-28T02:41:07.168Z,79.88
2022-08-28T02:43:33.980Z,79.71
2022-08-28T02:46:00.468Z,79.73
2022-08-28T02:48:31.865Z,79.53
2022-08-28T02:51:03.184Z,79.87
2022-08-28T02:53:30.348Z,79.87
2022-08-28T02:55:57.660Z,80.10
2022-08-28T02:58:26.681Z,80.07
2022-08-28T03:00:54.257Z,80.04
2022-08-28T03:03:20.895Z,79.78
2022-08-28T03:05:47.298Z,79.82
2022-08-28T03:08:13.804Z,79.63
2022-08-28T03:10:40.290Z,79.74
2022-08-28T03:13:06.716Z,79.55
2022-08-28T03:15:33.462Z,79.23
2022-08-28T03:18:00.256Z,80.06
2022-08-28T03:20:26.716Z,79.82
2022-08-28T03:23:11.780Z,79.38
2022-08-28T03:25:38.259Z,79.88
2022-08-28T03:28:04.697Z,79.71
2022-08-28T03:30:31.268Z,79.04
2022-08-28T03:32:57.708Z,78.97
2022-08-28T03:35:24.068Z,78.80
2022-08-28T03:37:50.500Z,78.97
2022-08-28T03:40:17.147Z,79.20
2022-08-28T03:42:43.599Z,79.19
2022-08-28T03:45:20.460Z,79.06
2022-08-28T03:47:46.906Z,78.83
2022-08-28T03:50:14.177Z,79.26
2022-08-28T03:52:41.184Z,79.35
2022-08-28T03:55:10.054Z,79.40
2022-08-28T03:57:37.089Z,79.77
2022-08-28T04:00:06.925Z,79.80
2022-08-28T04:02:33.289Z,79.97
2022-08-28T04:04:59.652Z,80.09
2022-08-28T04:07:26.010Z,80.42
2022-08-28T04:09:52.411Z,80.08
2022-08-28T04:12:18.779Z,79.91
2022-08-28T04:14:45.220Z,80.18
2022-08-28T04:17:11.675Z,80.17
2022-08-28T04:19:38.171Z,80.48
2022-08-28T04:22:04.699Z,80.42
2022-08-28T04:24:31.244Z,80.80
2022-08-28T04:26:57.605Z,80.63
2022-08-28T04:29:24.076Z,80.71
2022-08-28T04:31:50.819Z,80.96
2022-08-28T04:34:17.872Z,81.07
2022-08-28T04:36:44.468Z,80.85
2022-08-28T04:39:11.066Z,80.77
2022-08-28T04:41:38.598Z,80.37
2022-08-28T04:44:05.777Z,80.72
2022-08-28T04:46:32.677Z,80.42
2022-08-28T04:49:00.143Z,80.81
2022-08-28T04:51:27.116Z,80.78
2022-08-28T04:53:53.527Z,80.95
2022-08-28T04:56:20.013Z,80.22
2022-08-28T04:58:46.454Z,80.52
2022-08-28T05:01:19.880Z,80.75
2022-08-28T05:03:48.046Z,81.08
2022-08-28T05:06:16.125Z,81.03
2022-08-28T05:08:43.446Z,80.39
2022-08-28T05:11:13.048Z,80.21
2022-08-28T05:13:39.839Z,80.39
2022-08-28T05:16:06.803Z,79.59
2022-08-28T05:18:33.458Z,79.11
2022-08-28T05:21:00.294Z,78.97
2022-08-28T05:23:26.654Z,79.38
2022-08-28T05:25:53.132Z,79.39
2022-08-28T05:28:19.580Z,78.88
2022-08-28T05:30:46.828Z,77.92
2022-08-28T05:33:15.068Z,77.51
2022-08-28T05:35:44.591Z,77.95
2022-08-28T05:38:13.324Z,78.10
2022-08-28T05:40:49.292Z,78.33
2022-08-28T05:43:17.011Z,78.73
2022-08-28T05:45:43.456Z,77.86
2022-08-28T05:48:11.683Z,78.55
2022-08-28T05:50:39.428Z,78.90
2022-08-28T05:53:11.004Z,78.64
2022-08-28T05:55:40.111Z,77.87
2022-08-28T05:58:26.447Z,77.56
2022-08-28T06:00:52.793Z,78.24
2022-08-28T06:03:19.155Z,78.83
2022-08-28T06:05:45.675Z,78.30
2022-08-28T06:08:12.426Z,78.53
2022-08-28T06:10:50.849Z,77.60
2022-08-28T06:13:17.488Z,77.98
2022-08-28T06:15:46.312Z,77.36
2022-08-28T06:18:14.068Z,77.64
2022-08-28T06:20:43.037Z,77.63
2022-08-28T06:23:11.363Z,77.81
2022-08-28T06:25:49.091Z,76.96
2022-08-28T06:28:23.881Z,76.81
2022-08-28T06:31:17.812Z,77.02
2022-08-28T06:33:38.547Z,75.93
2022-08-28T06:36:05.884Z,75.74
2022-08-28T06:38:32.235Z,75.58
2022-08-28T06:40:58.940Z,74.67
2022-08-28T06:43:27.988Z,74.11
2022-08-28T06:45:56.378Z,73.28
2022-08-28T06:48:26.089Z,72.73
2022-08-28T06:50:53.738Z,72.56
2022-08-28T06:53:23.161Z,72.68
2022-08-28T06:56:01.260Z,72.25
2022-08-28T06:58:28.855Z,70.82
2022-08-28T07:01:08.498Z,71.02
2022-08-28T07:03:34.987Z,69.51
2022-08-28T07:06:05.213Z,69.05
2022-08-28T07:08:33.387Z,68.89
2022-08-28T07:11:00.199Z,67.17
2022-08-28T07:13:29.124Z,66.41
2022-08-28T07:15:57.742Z,66.83
2022-08-28T07:18:24.164Z,67.19
2022-08-28T07:20:55.869Z,67.94
2022-08-28T07:23:22.280Z,67.66
2022-08-28T07:25:48.660Z,66.53
2022-08-28T07:28:15.341Z,66.49
2022-08-28T07:30:41.799Z,67.27
2022-08-28T07:33:08.225Z,66.13
2022-08-28T07:35:34.629Z,66.34
2022-08-28T07:38:01.012Z,66.72
2022-08-28T07:40:27.437Z,65.04
2022-08-28T07:43:12.310Z,65.51
2022-08-28T07:45:38.683Z,64.80
2022-08-28T07:48:11.343Z,64.24
2022-08-28T07:50:38.109Z,64.72
2022-08-28T07:53:08.039Z,64.04
2022-08-28T07:55:34.376Z,64.32
2022-08-28T07:58:01.494Z,64.76
2022-08-28T08:00:27.884Z,63.36
2022-08-28T08:02:54.247Z,62.90
2022-08-28T08:05:20.877Z,62.98
2022-08-28T08:07:47.415Z,63.30
2022-08-28T08:10:14.853Z,62.81
2022-08-28T08:12:47.081Z,62.70
2022-08-28T08:15:13.760Z,62.66
2022-08-28T08:17:40.225Z,63.53
2022-08-28T08:20:08.539Z,63.92
2022-08-28T08:22:35.326Z,62.82
2022-08-28T08:25:04.924Z,63.76
2022-08-28T08:27:32.559Z,63.79
2022-08-28T08:29:59.640Z,63.41
2022-08-28T08:32:26.681Z,62.56
2022-08-28T08:34:55.873Z,63.55
2022-08-28T08:37:22.534Z,62.71
2022-08-28T08:39:48.952Z,62.56
2022-08-28T08:42:29.419Z,61.55
2022-08-28T08:44:58.552Z,61.36
2022-08-28T08:47:40.109Z,60.75
2022-08-28T08:50:20.859Z,60.42
2022-08-28T08:53:15.256Z,60.17
2022-08-28T08:55:50.897Z,59.82
2022-08-28T08:58:28.525Z,59.56
2022-08-28T09:01:01.506Z,59.08
2022-08-28T09:03:53.824Z,58.50
2022-08-28T09:06:35.187Z,57.58
2022-08-28T09:09:06.927Z,56.94
2022-08-28T09:11:58.241Z,58.19
2022-08-28T09:14:37.928Z,57.34
2022-08-28T09:17:06.793Z,56.74
2022-08-28T09:19:33.823Z,55.04
2022-08-28T09:22:01.288Z,56.13
2022-08-28T09:24:33.724Z,55.13
2022-08-28T09:27:20.068Z,54.87
2022-08-28T09:29:55.862Z,54.26
2022-08-28T09:32:31.652Z,54.71
2022-08-28T09:35:04.024Z,53.90
2022-08-28T09:37:33.768Z,52.27
2022-08-28T09:40:50.751Z,53.09
2022-08-28T09:43:26.837Z,53.01
2022-08-28T09:45:59.210Z,52.39
2022-08-28T09:48:44.285Z,51.96
2022-08-28T09:51:30.152Z,51.44
2022-08-28T09:54:02.402Z,50.97
2022-08-28T09:56:35.581Z,50.38
2022-08-28T09:59:06.740Z,49.09
2022-08-28T10:01:44.601Z,47.68
2022-08-28T10:04:15.653Z,48.35
2022-08-28T10:06:48.669Z,48.52
2022-08-28T10:09:21.671Z,49.23
2022-08-28T10:11:57.607Z,48.71
2022-08-28T10:14:44.485Z,47.69
2022-08-28T10:17:35.957Z,48.37
2022-08-28T10:20:14.914Z,48.97
2022-08-28T10:22:58.831Z,49.24
2022-08-28T10:25:47.005Z,48.00
2022-08-28T10:28:34.923Z,47.87
2022-08-28T10:31:04.450Z,48.00
2022-08-28T10:33:50.286Z,46.16
2022-08-28T10:36:34.087Z,45.95
2022-08-28T10:39:16.415Z,45.81
2022-08-28T10:41:46.612Z,46.45
2022-08-28T10:44:21.522Z,46.43
2022-08-28T10:46:53.812Z,44.83
2022-08-28T10:49:35.660Z,44.41
2022-08-28T10:52:10.430Z,43.59
2022-08-28T10:54:49.732Z,44.77
2022-08-28T10:57:39.467Z,43.45
2022-08-28T11:00:18.792Z,44.20
2022-08-28T11:02:52.745Z,43.90
2022-08-28T11:05:23.547Z,42.68
2022-08-28T11:07:58.204Z,42.22
2022-08-28T11:10:36.726Z,41.66
2022-08-28T11:13:06.354Z,42.79
2022-08-28T11:15:37.027Z,42.35
2022-08-28T11:18:09.855Z,42.25
2022-08-28T11:20:39.189Z,42.55
2022-08-28T11:23:20.659Z,43.39
2022-08-28T11:25:54.661Z,41.47
2022-08-28T11:28:24.190Z,41.85
2022-08-28T11:31:06.116Z,42.15
2022-08-28T11:33:47.619Z,41.28
2022-08-28T11:36:19.823Z,40.82
2022-08-28T11:38:46.767Z,40.93
2022-08-28T11:41:17.459Z,40.73
2022-08-28T11:43:46.377Z,42.90
2022-08-28T11:46:34.145Z,41.56
2022-08-28T11:49:05.200Z,41.26
2022-08-28T11:51:48.986Z,40.55
2022-08-28T11:54:26.742Z,40.91
2022-08-28T11:57:12.895Z,39.23
2022-08-28T11:59:57.884Z,38.92
2022-08-28T12:02:39.587Z,39.85
2022-08-28T12:05:31.174Z,39.40
2022-08-28T12:08:02.560Z,38.91
2022-08-28T12:10:30.539Z,39.10
2022-08-28T12:13:01.073Z,40.40
2022-08-28T12:15:27.428Z,39.96
2022-08-28T12:17:59.611Z,39.95
2022-08-28T12:20:38.750Z,40.42
2022-08-28T12:23:39.167Z,38.55
2022-08-28T12:26:18.989Z,38.93
2022-08-28T12:29:02.904Z,39.51
2022-08-28T12:31:47.914Z,39.70
2022-08-28T12:34:55.125Z,38.61
2022-08-28T12:37:25.214Z,39.21
2022-08-28T12:39:52.963Z,38.85
2022-08-28T12:42:22.346Z,38.90
2022-08-28T12:44:49.050Z,38.22
2022-08-28T12:47:18.789Z,38.65
2022-08-28T12:49:45.234Z,37.12
2022-08-28T12:52:20.181Z,38.39
2022-08-28T12:54:48.653Z,37.63
2022-08-28T12:57:17.887Z,37.67
2022-08-28T12:59:46.903Z,36.99
2022-08-28T13:02:34.164Z,36.80
2022-08-28T13:05:05.433Z,37.46
2022-08-28T13:07:40.501Z,38.92
2022-08-28T13:10:20.829Z,38.41
2022-08-28T13:12:56.235Z,38.59
2022-08-28T13:15:55.400Z,39.02
2022-08-28T13:18:44.143Z,39.55
2022-08-28T13:21:33.120Z,39.39
2022-08-28T13:24:22.377Z,37.95
2022-08-28T13:26:59.094Z,39.43
2022-08-28T13:29:25.694Z,38.31
2022-08-28T13:31:59.287Z,37.98
2022-08-28T13:34:34.831Z,38.66
2022-08-28T13:37:07.167Z,38.93
2022-08-28T13:39:41.185Z,39.29
2022-08-28T13:42:14.392Z,38.06
2022-08-28T13:44:48.538Z,38.50
2022-08-28T13:47:15.752Z,38.87
2022-08-28T13:49:42.706Z,38.89
2022-08-28T13:52:10.482Z,38.38
2022-08-28T13:54:38.176Z,37.82
2022-08-28T13:57:09.159Z,37.71
2022-08-28T13:59:35.530Z,38.83
2022-08-28T14:02:23.244Z,40.68
2022-08-28T14:04:49.614Z,37.75
2022-08-28T14:07:16.686Z,38.76
2022-08-28T14:09:43.090Z,39.70
2022-08-28T14:12:10.864Z,38.48
2022-08-28T14:14:39.656Z,41.77
2022-08-28T14:17:08.082Z,37.93
2022-08-28T14:19:34.503Z,37.53
2022-08-28T14:22:00.973Z,38.01
2022-08-28T14:24:27.480Z,36.82
2022-08-28T14:26:54.194Z,37.23
2022-08-28T14:29:22.390Z,38.15
2022-08-28T14:31:48.889Z,37.68
2022-08-28T14:34:18.653Z,37.16
2022-08-28T14:36:46.178Z,37.54
2022-08-28T14:39:13.506Z,36.30
2022-08-28T14:41:46.372Z,37.25
2022-08-28T14:44:13.120Z,37.20
2022-08-28T14:46:43.462Z,37.83
2022-08-28T14:49:13.175Z,37.02
2022-08-28T14:51:41.753Z,37.67
2022-08-28T14:54:10.945Z,36.75
2022-08-28T14:56:37.715Z,37.56
2022-08-28T14:59:06.248Z,37.23
2022-08-28T15:01:40.568Z,35.97
2022-08-28T15:04:11.429Z,35.34
2022-08-28T15:06:38.236Z,35.99
2022-08-28T15:09:04.704Z,36.56
2022-08-28T15:11:31.174Z,36.32
2022-08-28T15:13:58.458Z,36.29
2022-08-28T15:16:31.780Z,36.01
2022-08-28T15:18:59.237Z,35.37
2022-08-28T15:21:34.634Z,36.25
2022-08-28T15:24:03.426Z,37.35
2022-08-28T15:26:30.920Z,38.74
2022-08-28T15:29:02.322Z,38.46
2022-08-28T15:31:34.495Z,38.03
2022-08-28T15:34:13.252Z,37.76
2022-08-28T15:36:41.751Z,37.38
2022-08-28T15:39:27.568Z,37.53
2022-08-28T15:41:54.567Z,37.41
2022-08-28T15:44:21.023Z,37.71
2022-08-28T15:47:01.141Z,36.77
2022-08-28T15:49:30.402Z,35.41
2022-08-28T15:51:58.652Z,36.06
2022-08-28T15:54:25.399Z,36.55
2022-08-28T15:56:52.703Z,36.36
2022-08-28T15:59:21.192Z,36.85
2022-08-28T16:01:49.758Z,36.67
2022-08-28T16:04:17.233Z,36.78
2022-08-28T16:06:43.843Z,37.19
2022-08-28T16:09:11.250Z,37.21
2022-08-28T16:11:38.725Z,36.68
2022-08-28T16:14:06.942Z,36.37
2022-08-28T16:16:33.399Z,36.66
2022-08-28T16:19:00.173Z,36.90
2022-08-28T16:21:28.005Z,36.42
2022-08-28T16:23:54.915Z,36.14
2022-08-28T16:26:21.338Z,36.13
2022-08-28T16:28:47.829Z,36.24
2022-08-28T16:31:19.099Z,36.89
2022-08-28T16:33:47.129Z,37.52
2022-08-28T16:36:14.962Z,36.67
2022-08-28T16:38:43.223Z,37.76
2022-08-28T16:41:19.412Z,37.34
2022-08-28T16:43:46.881Z,37.84
2022-08-28T16:46:16.901Z,37.82
2022-08-28T16:48:45.254Z,37.85
2022-08-28T16:51:12.371Z,37.47
2022-08-28T16:53:40.604Z,38.57
2022-08-28T16:56:08.894Z,37.32
2022-08-28T16:58:37.092Z,37.17
2022-08-28T17:01:05.150Z,38.20
2022-08-28T17:03:34.845Z,39.00
2022-08-28T17:06:11.431Z,39.20
2022-08-28T17:08:38.576Z,39.41
2022-08-28T17:11:06.399Z,38.71
2022-08-28T17:13:33.663Z,39.06
2022-08-28T17:16:00.295Z,39.81
2022-08-28T17:18:26.854Z,39.54
2022-08-28T17:21:12.033Z,40.02
2022-08-28T17:23:38.438Z,39.92
2022-08-28T17:26:05.143Z,40.15
2022-08-28T17:28:32.408Z,40.51
2022-08-28T17:30:58.843Z,40.88
2022-08-28T17:33:25.389Z,39.79
2022-08-28T17:35:54.928Z,39.61
2022-08-28T17:38:21.844Z,39.20
2022-08-28T17:40:48.213Z,39.87
2022-08-28T17:43:14.599Z,39.89
2022-08-28T17:45:40.983Z,40.01
2022-08-28T17:48:07.530Z,40.12
2022-08-28T17:50:33.931Z,39.95
2022-08-28T17:53:00.774Z,40.29
2022-08-28T17:55:27.148Z,39.82
2022-08-28T17:57:53.512Z,39.49
2022-08-28T18:00:20.046Z,40.74
2022-08-28T18:02:53.571Z,40.14
2022-08-28T18:05:20.560Z,39.59
2022-08-28T18:07:47.743Z,40.04
2022-08-28T18:10:14.728Z,40.13
2022-08-28T18:12:41.856Z,39.81
2022-08-28T18:15:10.163Z,41.06
2022-08-28T18:17:37.967Z,40.24
2022-08-28T18:20:07.647Z,40.89
2022-08-28T18:22:34.571Z,41.00
2022-08-28T18:25:03.766Z,40.84
2022-08-28T18:27:31.512Z,40.87
2022-08-28T18:29:58.685Z,40.83
2022-08-28T18:32:25.266Z,40.96
2022-08-28T18:34:51.718Z,41.25
2022-08-28T18:37:18.234Z,40.63
2022-08-28T18:39:44.582Z,41.15
2022-08-28T18:42:11.407Z,41.11
2022-08-28T18:44:37.803Z,41.05
2022-08-28T18:47:04.315Z,43.50
2022-08-28T18:49:30.668Z,43.57
2022-08-28T18:51:57.093Z,41.79
2022-08-28T18:54:23.597Z,43.19
2022-08-28T18:56:50.464Z,41.57
2022-08-28T18:59:17.782Z,41.17
2022-08-28T19:01:44.418Z,41.67
2022-08-28T19:04:10.903Z,42.15
2022-08-28T19:06:37.331Z,42.28
2022-08-28T19:09:05.528Z,41.58
2022-08-28T19:11:32.388Z,41.95
2022-08-28T19:13:59.545Z,42.07
2022-08-28T19:16:31.491Z,42.05
2022-08-28T19:18:57.951Z,41.95
2022-08-28T19:21:24.727Z,42.24
2022-08-28T19:23:55.903Z,42.20
2022-08-28T19:26:23.393Z,41.82
2022-08-28T19:28:50.515Z,42.14
2022-08-28T19:31:17.553Z,42.48
2022-08-28T19:33:46.341Z,43.11
2022-08-28T19:36:14.000Z,43.07
2022-08-28T19:38:40.731Z,43.38
2022-08-28T19:41:08.739Z,44.05
2022-08-28T19:43:42.599Z,44.08
2022-08-28T19:46:19.385Z,43.92
2022-08-28T19:48:51.170Z,44.10
2022-08-28T19:51:22.741Z,44.29
2022-08-28T19:53:57.414Z,44.25
2022-08-28T19:56:27.205Z,44.19
2022-08-28T19:58:54.772Z,44.43
2022-08-28T20:01:21.296Z,44.66
2022-08-28T20:03:47.936Z,44.90
2022-08-28T20:06:14.453Z,45.04
2022-08-28T20:08:40.874Z,45.03
2022-08-28T20:11:08.723Z,45.19
2022-08-28T20:13:35.432Z,45.27
2022-08-28T20:16:05.201Z,45.47
2022-08-28T20:18:33.264Z,45.58
2022-08-28T20:20:59.807Z,45.00
2022-08-28T20:23:26.169Z,44.90
2022-08-28T20:25:52.567Z,45.25
2022-08-28T20:28:19.215Z,45.42
2022-08-28T20:30:46.801Z,45.38
2022-08-28T20:33:13.625Z,45.63
2022-08-28T20:35:40.115Z,45.93
2022-08-28T20:38:06.685Z,45.77
2022-08-28T20:40:33.535Z,45.93
2022-08-28T20:43:00.594Z,46.64
2022-08-28T20:45:27.321Z,46.90
2022-08-28T20:47:53.793Z,46.98
2022-08-28T20:50:20.467Z,46.45
2022-08-28T20:52:46.850Z,46.94
2022-08-28T20:55:14.062Z,47.16
2022-08-28T20:57:40.958Z,47.17
2022-08-28T21:00:09.463Z,47.83
2022-08-28T21:02:36.920Z,47.52
2022-08-28T21:05:04.526Z,48.08
2022-08-28T21:07:33.287Z,48.12
2022-08-28T21:10:05.806Z,48.09
2022-08-28T21:12:37.704Z,48.44
2022-08-28T21:15:06.205Z,48.39
2022-08-28T21:17:32.601Z,48.92
2022-08-28T21:20:01.377Z,48.54
2022-08-28T21:22:31.251Z,48.55
2022-08-28T21:24:57.709Z,48.92
2022-08-28T21:27:24.868Z,48.85
2022-08-28T21:29:51.308Z,48.94
2022-08-28T21:32:17.894Z,48.93
2022-08-28T21:34:44.356Z,49.05
2022-08-28T21:37:10.718Z,49.20
2022-08-28T21:39:37.114Z,49.57
2022-08-28T21:42:03.687Z,49.66
2022-08-28T21:44:30.029Z,50.00
2022-08-28T21:46:56.436Z,50.52
2022-08-28T21:49:22.955Z,49.87
2022-08-28T21:51:50.383Z,50.04
2022-08-28T21:54:17.291Z,50.52
2022-08-28T21:56:43.694Z,51.02
2022-08-28T21:59:10.045Z,50.67
2022-08-28T22:01:36.600Z,50.62
2022-08-28T22:04:04.493Z,50.76
2022-08-28T22:06:30.928Z,50.77
2022-08-28T22:08:57.973Z,51.71
2022-08-28T22:11:26.653Z,51.28
2022-08-28T22:13:55.345Z,51.01
2022-08-28T22:16:23.555Z,51.27
2022-08-28T22:18:50.638Z,51.33
2022-08-28T22:21:43.655Z,51.43
2022-08-28T22:24:11.923Z,51.66
2022-08-28T22:26:38.831Z,51.65
2022-08-28T22:29:05.905Z,52.20
2022-08-28T22:31:32.399Z,51.97
2022-08-28T22:33:58.792Z,52.66
2022-08-28T22:36:25.211Z,53.06
2022-08-28T22:38:56.169Z,53.72
2022-08-28T22:41:23.239Z,53.25
2022-08-28T22:43:51.212Z,52.98
2022-08-28T22:46:18.772Z,53.00
2022-08-28T22:48:45.906Z,53.47
2022-08-28T22:51:14.891Z,53.61
2022-08-28T22:53:43.601Z,54.28
2022-08-28T22:56:11.714Z,54.52
2022-08-28T22:58:38.994Z,54.32
2022-08-28T23:01:10.542Z,54.58
2022-08-28T23:03:37.736Z,54.56
2022-08-28T23:06:04.603Z,54.72
2022-08-28T23:08:34.033Z,54.91
2022-08-28T23:11:00.870Z,55.22
2022-08-28T23:13:27.747Z,54.96
2022-08-28T23:15:54.084Z,55.25
2022-08-28T23:18:21.026Z,55.05
2022-08-28T23:20:47.431Z,55.15
2022-08-28T23:23:17.355Z,55.15
2022-08-28T23:25:44.038Z,55.19
2022-08-28T23:28:10.436Z,55.39
2022-08-28T23:30:38.783Z,55.28
2022-08-28T23:33:08.578Z,55.44
2022-08-28T23:35:36.024Z,54.62
2022-08-28T23:38:03.632Z,54.74
2022-08-28T23:40:30.500Z,54.84
2022-08-28T23:42:57.956Z,54.95
2022-08-28T23:45:25.963Z,55.72
2022-08-28T23:47:53.805Z,54.27
2022-08-28T23:50:22.630Z,54.55
2022-08-28T23:52:49.957Z,54.92
2022-08-28T23:55:18.538Z,55.21
2022-08-28T23:57:45.791Z,55.36
